Hirving Araujo

Recruteur - Monterrey
19 Août 2027
Jeudi
Processus

Personnalité

Adaptabilité (13) Ambition (6) Controverse (17) Loyauté (4) Pression (2) Professionnalisme (19) Sportivité (16) Tempérament (14)

Profil

Style d'entraînement Démocratique
Diplôme Continental B
Détermination 15
Gestion des joueurs 9
Motivation 14
Discipline 11
Satisfaction professionnelle
100%
Fatigue
0%
Rôle Recruteur
Salaire 59.1K p/s
Contrat 14.03.2028

Performance

Comportement Bon
Efficacité de l'entraînement
55%
Développement des joueurs
35%
Prévention des blessures
65%
Mise en place tactique
40%

Événements récents

A évalué un joueur maintenant
A participé à une réunion de recrutement maintenant
A évalué un joueur 7j
A participé à une réunion de recrutement 7j
A participé à une réunion de recrutement 7j
A évalué un joueur 7j
A évalué un joueur 7j
A évalué un joueur 14j

Suivi en cours

144
Joueur Club Statut Capacité Confiance Observé Dernière observation Dernier vote
Zakaria Aboukhlal Torino Actif 148 / 137 40% 2 17.08.2027 -
Moussa Dembélé CR Belouizdad Actif 122 / 134 40% 1 17.08.2027 -
Couhaib Driouech Celta Actif 140 / 139 40% 1 16.08.2027 -
Moussa Diakité Cádiz Actif 121 / 142 40% 1 16.08.2027 -
Andrés Martín Racing Santander Actif 143 / 148 40% 1 14.08.2027 -
Mikel Oyarzábal Real Sociedad Actif 155 / 168 40% 1 14.08.2027 -
Romain Del Castillo Osasuna Actif 142 / 139 40% 1 12.08.2027 -
Donyell Malen AS Roma Actif 151 / 165 40% 1 12.08.2027 -
Ilyas Ansah Hull City Actif 138 / 132 40% 2 09.08.2027 -
Ismaïla Sarr Crystal Palace Actif 152 / 142 40% 1 09.08.2027 -
Murphy Cooper Plymouth Argyle Actif 122 / 125 40% 1 08.08.2027 -
Sergio Barlocco Trento Actif 108 / 113 40% 1 08.08.2027 -
Robin Roefs Sunderland Actif 155 / 149 40% 2 03.08.2027 -
Kostantis Tzolakis Hull City Actif 143 / 155 40% 1 03.08.2027 -
Lorenzo Amatucci Deportivo La Coruña Actif 136 / 141 40% 2 01.08.2027 -
Tani Oluwaseyi Villarreal Actif 152 / 145 40% 1 01.08.2027 -
Igor Nikić Mirandés Actif 120 / 123 40% 1 31.07.2027 -
Unai Marrero Real Sociedad Actif 135 / 139 40% 1 31.07.2027 -
Javi Martínez Eibar Actif 130 / 139 40% 1 31.07.2027 -
Ez Abde Girona Actif 162 / 146 40% 1 31.07.2027 -
Jamie Cumming Oxford United Actif 143 / 132 40% 1 29.07.2027 -
Mario Soriano Deportivo La Coruña Actif 144 / 143 40% 1 28.07.2027 -
Andre Brooks Sheffield United Actif 126 / 134 40% 1 28.07.2027 -
Cezary Miszta Rio Ave Actif 128 / 131 40% 1 27.07.2027 -
William Rovida Pro Patria Actif 113 / 114 40% 1 27.07.2027 -
Kevin Fulham Actif 157 / 156 40% 1 23.07.2027 -
Georges Mikautadze Villarreal Actif 152 / 145 40% 1 23.07.2027 -
Isma Ruiz Córdoba Actif 125 / 132 40% 2 22.07.2027 -
José Ángel Carmona Sevilla Actif 156 / 141 40% 1 22.07.2027 -
Jack Rudoni Coventry City Actif 141 / 144 40% 1 21.07.2027 -
Iván Romero Levante Actif 129 / 129 40% 2 19.07.2027 -
Adu Ares Eibar Actif 122 / 125 40% 1 19.07.2027 -
Daijiro Chirino Almería Actif 134 / 135 40% 1 18.07.2027 -
Álex Lizancos Burgos Actif 136 / 130 40% 1 17.07.2027 -
Dylan Borrero America de Cali Actif 124 / 131 40% 1 17.07.2027 -
Jordan Amissah Burton Albion Actif 100 / 115 40% 1 16.07.2027 -
Iván Gil Eibar Actif 117 / 117 40% 1 15.07.2027 -
Kwame Poku Queens Park Rangers Actif 136 / 129 40% 1 15.07.2027 -
Bradley Mabunda SuperSport United Actif 111 / 122 40% 1 14.07.2027 -
Joaquín Enrico San Telmo Actif 100 / 98 40% 1 14.07.2027 -
Milan van Ewijk Mansfield Town Actif 128 / 130 40% 1 12.07.2027 -
Soufiane Rahimi Guadalajara Actif 142 / 127 40% 2 10.07.2027 -
Leif Davis Ipswich Town Actif 141 / 138 40% 2 10.07.2027 -
Stanley Mills Oxford United Actif 128 / 128 40% 4 07.07.2027 -
Ollie Tanner Cardiff City Actif 129 / 119 40% 1 07.07.2027 -
Scott Twine Bristol City Actif 131 / 128 40% 2 05.07.2027 -
Víctor Mollejo Burgos Actif 114 / 124 40% 1 05.07.2027 -
Amath N'Diaye Valladolid Actif 128 / 139 40% 1 05.07.2027 -
Takehiro Tomiyasu Crystal Palace Actif 150 / 150 40% 1 05.07.2027 -
Karl Etta Eyong Levante Actif 140 / 149 40% 1 02.07.2027 -
Ozziel Herrera Tigres Actif 135 / 120 40% 3 30.06.2027 -
David Mella Deportivo La Coruña Actif 127 / 137 40% 1 30.06.2027 -
Pablo Durán Celta Actif 147 / 126 40% 1 29.06.2027 -
Dany Mota Monza Actif 141 / 133 40% 1 29.06.2027 -
Manfred Ugalde Spartak Moscow Actif 137 / 125 40% 4 26.06.2027 -
Razvan Balasa Crvena Zvezda Actif 150 / 157 40% 3 26.06.2027 -
Musa Barrow Al-Khaleej Actif 159 / 125 40% 2 22.06.2027 -
Marvin Park Las Palmas Actif 137 / 121 40% 1 22.06.2027 -
Breel Embolo Atlanta United FC Actif 152 / 132 40% 1 20.06.2027 -
Ruben van Bommel Ferencvaros Actif 122 / 122 40% 2 18.06.2027 -
Melker Widell Swansea City Actif 125 / 118 40% 1 16.06.2027 -
Ernest Muçi Trabzonspor Actif 127 / 126 40% 1 14.06.2027 -
Ezequiel Bullaude Santos Laguna Actif 134 / 117 55% 1 03.06.2027 -
Diego Lainez Tigres Actif 139 / 126 40% 3 31.05.2027 -
Agustín Palavecino Cruz Azul Actif 128 / 140 40% 2 31.05.2027 Plus d'infos
Ethan Galbraith Swansea City Actif 138 / 132 40% 2 30.05.2027 -
Félix Lemaréchal Club Brugge Actif 143 / 137 40% 3 29.05.2027 Observer
Bradley Locko Stade Brestois Actif 140 / 140 40% 1 27.05.2027 -
Ben Sheaf Wrexham Actif 124 / 130 40% 1 27.05.2027 -
Kyle Walker-Peters West Ham United Actif 139 / 129 40% 2 22.05.2027 -
Brian Rodríguez Club America Actif 143 / 141 40% 1 22.05.2027 -
Riley McGree Middlesbrough Actif 128 / 127 40% 2 21.05.2027 -
Alejandro Zendejas Club America Refusé 143 / 128 40% 2 19.05.2027 Plus d'infos
Martin Baturina Como Actif 149 / 144 40% 1 18.05.2027 -
Sorba Thomas Stoke City Actif 130 / 135 40% 1 17.05.2027 -
Morgan Whittaker Middlesbrough Actif 137 / 131 40% 1 17.05.2027 -
Roberto Fernández Braga Actif 140 / 152 40% 1 16.05.2027 -
Joe Gelhardt Hull City Actif 141 / 129 40% 1 16.05.2027 -
Emanuele Valeri Parma Actif 141 / 133 40% 1 14.05.2027 -
Christos Mouzakitis Hull City Actif 137 / 135 40% 2 08.05.2027 -
Josh Doig Sassuolo Actif 131 / 127 40% 1 08.05.2027 -
Kasey McAteer Ipswich Town Actif 124 / 121 40% 1 06.05.2027 -
Diogo Gonçalves Fenerbahce Actif 133 / 137 40% 1 05.05.2027 -
Edoardo Bove Watford Actif 137 / 135 40% 1 04.05.2027 -
Ruben Loftus-Cheek AC Milan Actif 147 / 151 40% 1 04.05.2027 -
Joachim Andersen Fulham Actif 137 / 144 40% 1 03.05.2027 -
Anel Ahmedhodžić Burnley Actif 142 / 142 40% 1 02.05.2027 -
Saša Lukić Ipswich Town Refusé 139 / 136 40% 2 29.04.2027 Plus d'infos
Fredrik Aursnes Benfica Actif 154 / 154 40% 1 29.04.2027 -
Richard Ledezma Guadalajara Actif 127 / 128 40% 1 29.04.2027 -
Nahuel Tenaglia Tigres Actif 142 / 128 40% 2 27.04.2027 -
Iván Fresneda Sporting CP Actif 143 / 141 40% 1 26.04.2027 -
Sidny Lopes Cabral Trabzonspor Actif 132 / 122 40% 2 25.04.2027 -
Jesús Ricardo Angulo Toluca Actif 125 / 126 40% 2 24.04.2027 -
Luís Esteves Atlas Actif 133 / 138 40% 1 23.04.2027 Plus d'infos
Kwadwo Baah Watford Actif 118 / 116 40% 1 21.04.2027 -
Lee Hyun-Ju Arouca Actif 124 / 114 40% 1 21.04.2027 -
Tomáš Rigo Stoke City Actif 124 / 138 40% 1 19.04.2027 -
Azor Matusiwa Ipswich Town Actif 129 / 146 40% 1 18.04.2027 -
Jesús Angulo Tigres Actif 134 / 143 40% 1 18.04.2027 -
Imrân Louza Watford Actif 134 / 131 40% 1 17.04.2027 -
Kevin Vazquez Cruz Azul Actif 141 / 136 40% 1 15.04.2027 -
Christos Zafeiris Tigres Actif 150 / 145 40% 1 15.04.2027 -
Hwang Hee-Chan Wolverhampton Actif 126 / 122 40% 2 14.04.2027 -
Bertrand Traoré Sunderland Actif 129 / 126 40% 1 14.04.2027 -
Ola Aina Nottingham Forest Actif 148 / 149 40% 2 13.04.2027 -
Nobel Mendy Hull City Actif 144 / 131 40% 1 13.04.2027 -
George Earthy Reading Actif 113 / 113 40% 1 11.04.2027 -
Ilario Monterisi Frosinone Actif 122 / 120 40% 1 11.04.2027 -
Willer Ditta Cruz Azul Actif 143 / 123 40% 1 11.04.2027 -
Yoane Wissa Newcastle United Actif 139 / 152 40% 1 07.04.2027 -
Alessio Zerbin Frosinone Actif 140 / 139 40% 1 02.04.2027 -
Robin Fellhauer FC Augsburg Actif 131 / 142 40% 1 01.04.2027 -
Florentino Luís Ipswich Town Actif 135 / 152 40% 2 31.03.2027 -
Kenny Tete Fulham Actif 149 / 138 40% 1 31.03.2027 -
Mandla Erasmus SuperSport United Actif 108 / 104 40% 1 29.03.2027 -
Oleksandr Zubkov AEK Actif 136 / 115 40% 1 28.03.2027 -
Pedrinho Shakhtar Actif 119 / 139 40% 1 24.03.2027 -
Rolando Mandragora Torino Actif 135 / 137 40% 1 22.03.2027 -
Lucas Torreira Galatasaray Actif 145 / 141 40% 1 22.03.2027 -
Noah Sadiki Sunderland Actif 138 / 143 40% 1 21.03.2027 -
Flynn Downes Southampton Actif 138 / 122 40% 1 20.03.2027 -
Cheick Doucouré Crystal Palace Actif 138 / 145 40% 1 20.03.2027 -
Mohamed-Ali Cho Hull City Actif 141 / 141 40% 2 19.03.2027 -
Maksim Kireev KV Mechelen Actif 129 / 119 40% 1 19.03.2027 -
Welington Southampton Actif 122 / 129 40% 1 17.03.2027 -
Emi Rodriguez Leon Actif 114 / 112 40% 1 03.03.2027 -
Mario Stroeykens Anderlecht Actif 119 / 130 40% 1 03.03.2027 -
Adnan Courtois KV Oostende Actif 136 / 140 40% 4 29.12.2026 -
Bamba Dieng Crvena Zvezda Actif 125 / 118 40% 2 26.12.2026 -
Efraín Álvarez Guadalajara Actif 120 / 136 40% 1 26.12.2026 -
Nicolás Cordero Aldosivi Actif 124 / 128 40% 1 14.12.2026 -
Dom Ballard Leyton Orient Actif 114 / 114 40% 2 12.12.2026 -
Marezi Portsmouth Actif 124 / 115 40% 2 02.12.2026 -
Nahuel Ulariaga Hapoel Beer Sheva Actif 133 / 137 40% 1 13.11.2026 -
Alexander Díaz Deportivo Riestra Actif 130 / 107 40% 1 12.11.2026 -
George Hirst Stoke City Actif 134 / 138 40% 1 09.11.2026 -
Alexis Cuello San Lorenzo Actif 134 / 112 40% 1 08.11.2026 -
Ola Brynhildsen Bodo/Glimt Actif 113 / 117 40% 1 08.11.2026 -
Sead Hakšabanović Malmo FF Actif 113 / 105 40% 1 31.10.2026 -
Tadeo Allende Inter Miami CF Actif 112 / 132 40% 1 27.10.2026 -
Rafael Navarro St. Louis CITY SC Actif 137 / 113 40% 1 10.10.2026 -
Justo Giani Universidad Catolica Actif 115 / 118 40% 1 06.10.2026 -
Adrián Alavés Actif 108 / 117 40% 1 02.08.2026 -